createdAt,value
2024-02-15T00:00:12.320Z,43.72
2024-02-15T00:01:15.146Z,43.71
2024-02-15T00:02:17.842Z,43.68
2024-02-15T00:03:22.455Z,43.71
2024-02-15T00:04:25.753Z,43.68
2024-02-15T00:05:28.974Z,43.66
2024-02-15T00:06:32.828Z,43.65
2024-02-15T00:07:35.963Z,43.65
2024-02-15T00:08:39.607Z,43.65
2024-02-15T00:09:44.437Z,43.62
2024-02-15T00:10:47.903Z,43.60
2024-02-15T00:11:51.356Z,43.61
2024-02-15T00:12:53.987Z,43.61
2024-02-15T00:13:58.317Z,43.59
2024-02-15T00:15:02.995Z,43.56
2024-02-15T00:16:06.836Z,43.58
2024-02-15T00:17:09.474Z,43.56
2024-02-15T00:18:13.227Z,43.59
2024-02-15T00:19:19.852Z,43.58
2024-02-15T00:20:23.026Z,43.57
2024-02-15T00:21:25.731Z,43.58
2024-02-15T00:22:28.458Z,43.56
2024-02-15T00:23:32.994Z,43.58
2024-02-15T00:24:42.282Z,43.67
2024-02-15T00:25:45.355Z,43.72
2024-02-15T00:26:48.703Z,43.77
2024-02-15T00:27:53.061Z,43.76
2024-02-15T00:28:56.505Z,43.76
2024-02-15T00:29:59.338Z,43.73
2024-02-15T00:31:04.365Z,43.71
2024-02-15T00:32:08.881Z,43.71
2024-02-15T00:33:12.257Z,43.70
2024-02-15T00:34:17.979Z,43.67
2024-02-15T00:35:22.694Z,43.66
2024-02-15T00:36:26.781Z,43.65
2024-02-15T00:37:29.605Z,43.63
2024-02-15T00:38:32.793Z,43.65
2024-02-15T00:39:36.482Z,43.66
2024-02-15T00:40:42.690Z,43.64
2024-02-15T00:41:46.777Z,43.65
2024-02-15T00:42:49.479Z,43.65
2024-02-15T00:43:52.947Z,43.62
2024-02-15T00:44:56.371Z,43.60
2024-02-15T00:45:58.923Z,43.61
2024-02-15T00:47:01.608Z,43.61
2024-02-15T00:48:07.007Z,43.59
2024-02-15T00:49:10.710Z,43.57
2024-02-15T00:50:14.105Z,43.59
2024-02-15T00:51:16.884Z,43.58
2024-02-15T00:52:19.592Z,43.58
2024-02-15T00:53:24.288Z,43.56
2024-02-15T00:54:26.921Z,43.56
2024-02-15T00:55:30.444Z,43.58
2024-02-15T00:56:33.488Z,43.58
2024-02-15T00:57:36.749Z,43.55
2024-02-15T00:58:39.505Z,43.55
2024-02-15T00:59:42.517Z,43.56
2024-02-15T01:00:46.657Z,43.58
2024-02-15T01:01:50.421Z,43.71
2024-02-15T01:02:53.628Z,43.76
2024-02-15T01:03:56.948Z,43.79
2024-02-15T01:04:59.543Z,43.78
2024-02-15T01:06:03.283Z,43.79
2024-02-15T01:07:06.595Z,43.80
2024-02-15T01:08:09.513Z,43.78
2024-02-15T01:09:13.875Z,43.77
2024-02-15T01:10:18.465Z,43.79
2024-02-15T01:11:21.984Z,43.77
2024-02-15T01:12:24.907Z,43.77
2024-02-15T01:13:28.476Z,43.78
2024-02-15T01:14:32.393Z,43.79
2024-02-15T01:15:37.315Z,43.76
2024-02-15T01:16:40.157Z,43.72
2024-02-15T01:17:42.901Z,43.73
2024-02-15T01:18:45.862Z,43.75
2024-02-15T01:19:49.702Z,43.72
2024-02-15T01:20:52.977Z,43.72
2024-02-15T01:21:56.597Z,43.70
2024-02-15T01:22:59.272Z,43.67
2024-02-15T01:24:02.449Z,43.68
2024-02-15T01:25:06.844Z,43.68
2024-02-15T01:26:12.324Z,43.66
2024-02-15T01:27:15.105Z,43.67
2024-02-15T01:28:18.424Z,43.65
2024-02-15T01:29:21.188Z,43.62
2024-02-15T01:30:25.412Z,43.60
2024-02-15T01:31:28.957Z,43.58
2024-02-15T01:32:31.869Z,43.58
2024-02-15T01:33:34.909Z,43.51
2024-02-15T01:34:39.877Z,43.54
2024-02-15T01:35:42.767Z,43.55
2024-02-15T01:36:50.812Z,43.50
2024-02-15T01:37:53.865Z,43.50
2024-02-15T01:38:58.693Z,43.50
2024-02-15T01:40:01.522Z,43.46
2024-02-15T01:41:04.378Z,43.48
2024-02-15T01:42:07.846Z,43.45
2024-02-15T01:43:11.416Z,43.48
2024-02-15T01:44:14.272Z,43.54
2024-02-15T01:45:17.595Z,43.67
2024-02-15T01:46:20.714Z,43.71
2024-02-15T01:47:25.161Z,43.73
2024-02-15T01:48:28.060Z,43.72
2024-02-15T01:49:31.046Z,43.73
2024-02-15T01:50:34.655Z,43.71
2024-02-15T01:51:37.728Z,43.72
2024-02-15T01:52:40.776Z,43.71
2024-02-15T01:53:44.339Z,43.71
2024-02-15T01:54:47.190Z,43.69
2024-02-15T01:55:50.014Z,43.66
2024-02-15T01:56:52.953Z,43.67
2024-02-15T01:57:56.008Z,43.70
2024-02-15T01:58:59.259Z,43.69
2024-02-15T02:00:04.421Z,43.67
2024-02-15T02:01:10.047Z,43.72
2024-02-15T02:02:13.521Z,43.77
2024-02-15T02:03:16.784Z,43.71
2024-02-15T02:04:19.413Z,43.69
2024-02-15T02:05:23.220Z,43.56
2024-02-15T02:06:26.978Z,43.56
2024-02-15T02:07:30.281Z,43.61
2024-02-15T02:08:34.144Z,43.58
2024-02-15T02:09:38.255Z,43.53
2024-02-15T02:10:41.314Z,43.53
2024-02-15T02:11:47.052Z,43.54
2024-02-15T02:12:50.062Z,43.55
2024-02-15T02:13:53.029Z,43.55
2024-02-15T02:14:57.294Z,43.53
2024-02-15T02:16:00.554Z,43.49
2024-02-15T02:17:14.133Z,43.50
2024-02-15T02:18:17.642Z,43.48
2024-02-15T02:19:21.040Z,43.49
2024-02-15T02:20:24.388Z,43.44
2024-02-15T02:21:28.798Z,43.44
2024-02-15T02:22:33.169Z,43.44
2024-02-15T02:23:36.810Z,43.46
2024-02-15T02:25:01.787Z,43.43
2024-02-15T02:26:04.504Z,43.46
2024-02-15T02:27:09.605Z,43.54
2024-02-15T02:28:12.740Z,43.65
2024-02-15T02:29:16.810Z,43.77
2024-02-15T02:30:19.693Z,43.83
2024-02-15T02:31:22.518Z,43.83
2024-02-15T02:32:25.756Z,43.81
2024-02-15T02:33:30.330Z,43.82
2024-02-15T02:34:34.321Z,43.77
2024-02-15T02:35:37.568Z,43.72
2024-02-15T02:36:41.283Z,43.71
2024-02-15T02:37:45.899Z,43.70
2024-02-15T02:38:51.631Z,43.70
2024-02-15T02:39:54.403Z,43.70
2024-02-15T02:40:57.738Z,43.67
2024-02-15T02:42:01.588Z,43.66
2024-02-15T02:43:04.686Z,43.65
2024-02-15T02:44:07.671Z,43.66
2024-02-15T02:45:10.482Z,43.61
2024-02-15T02:46:14.459Z,43.60
2024-02-15T02:47:17.485Z,43.60
2024-02-15T02:48:20.683Z,43.60
2024-02-15T02:50:36.946Z,43.66
2024-02-15T02:52:52.906Z,43.83
2024-02-15T02:53:56.258Z,43.78
2024-02-15T02:55:11.166Z,43.81
2024-02-15T02:56:14.189Z,43.75
2024-02-15T02:57:17.740Z,43.67
2024-02-15T02:58:21.053Z,43.60
2024-02-15T02:59:23.768Z,43.48
2024-02-15T03:00:28.183Z,43.40
2024-02-15T03:01:31.046Z,43.31
2024-02-15T03:02:38.303Z,43.19
2024-02-15T03:03:41.225Z,43.10
2024-02-15T03:04:45.113Z,42.97
2024-02-15T03:05:49.033Z,42.93
2024-02-15T03:06:54.916Z,42.80
2024-02-15T03:07:58.964Z,42.76
2024-02-15T03:09:01.896Z,42.69
2024-02-15T03:10:07.247Z,42.63
2024-02-15T03:11:09.898Z,42.58
2024-02-15T03:12:12.743Z,42.50
2024-02-15T03:13:16.161Z,42.44
2024-02-15T03:14:18.674Z,42.41
2024-02-15T03:15:23.994Z,42.34
2024-02-15T03:16:30.233Z,42.29
2024-02-15T03:17:33.088Z,42.23
2024-02-15T03:18:35.964Z,42.17
2024-02-15T03:19:39.003Z,42.17
2024-02-15T03:20:42.191Z,42.13
2024-02-15T03:21:48.179Z,42.10
2024-02-15T03:24:09.122Z,41.95
2024-02-15T03:25:11.905Z,41.92
2024-02-15T03:26:15.004Z,41.90
2024-02-15T03:27:17.834Z,41.90
2024-02-15T03:28:21.742Z,41.87
2024-02-15T03:29:26.892Z,41.90
2024-02-15T03:30:31.520Z,42.06
2024-02-15T03:31:37.124Z,42.27
2024-02-15T03:32:41.352Z,42.44
2024-02-15T03:33:45.077Z,42.56
2024-02-15T03:34:47.775Z,42.59
2024-02-15T03:35:50.369Z,42.62
2024-02-15T03:36:54.575Z,42.66
2024-02-15T03:37:58.041Z,42.66
2024-02-15T03:39:01.587Z,42.68
2024-02-15T03:40:05.764Z,42.73
2024-02-15T03:41:08.514Z,42.74
2024-02-15T03:42:11.125Z,42.73
2024-02-15T03:43:14.039Z,42.75
2024-02-15T03:44:20.965Z,42.78
2024-02-15T03:45:26.955Z,42.79
2024-02-15T03:46:30.283Z,42.78
2024-02-15T03:47:36.631Z,42.90
2024-02-15T03:48:40.442Z,42.84
2024-02-15T03:49:43.566Z,42.83
2024-02-15T03:50:46.590Z,42.82
2024-02-15T03:51:49.942Z,42.83
2024-02-15T03:52:52.896Z,42.85
2024-02-15T03:53:56.440Z,42.88
2024-02-15T03:54:59.931Z,42.84
2024-02-15T03:56:02.980Z,42.85
2024-02-15T03:57:06.991Z,42.85
2024-02-15T03:58:09.995Z,42.87
2024-02-15T03:59:14.235Z,42.84
2024-02-15T04:01:37.877Z,42.83
2024-02-15T04:02:43.819Z,42.84
2024-02-15T04:03:48.376Z,42.83
2024-02-15T04:04:53.235Z,42.81
2024-02-15T04:05:56.115Z,42.81
2024-02-15T04:06:59.201Z,42.73
2024-02-15T04:08:02.953Z,42.72
2024-02-15T04:09:05.953Z,42.72
2024-02-15T04:10:10.388Z,42.67
2024-02-15T04:11:14.252Z,42.67
2024-02-15T04:13:31.531Z,42.81
2024-02-15T04:14:34.910Z,42.84
2024-02-15T04:15:38.819Z,42.86
2024-02-15T04:17:57.854Z,42.85
2024-02-15T04:19:02.354Z,42.84
2024-02-15T04:20:06.896Z,42.83
2024-02-15T04:21:10.024Z,42.81
2024-02-15T04:22:16.238Z,42.81
2024-02-15T04:24:32.334Z,42.98
2024-02-15T04:26:49.290Z,43.07
2024-02-15T04:27:52.252Z,43.11
2024-02-15T04:28:55.100Z,43.19
2024-02-15T04:29:58.900Z,43.22
2024-02-15T04:31:01.625Z,43.22
2024-02-15T04:32:05.233Z,43.27
2024-02-15T04:33:09.279Z,43.35
2024-02-15T04:34:12.484Z,43.27
2024-02-15T04:35:15.615Z,43.23
2024-02-15T04:36:20.488Z,43.14
2024-02-15T04:37:26.718Z,42.97
2024-02-15T04:38:29.900Z,42.80
2024-02-15T04:39:34.370Z,42.75
2024-02-15T04:40:39.824Z,42.80
2024-02-15T04:41:43.206Z,42.88
2024-02-15T04:42:47.654Z,43.08
2024-02-15T04:43:51.246Z,43.08
2024-02-15T04:44:55.741Z,43.15
2024-02-15T04:45:59.156Z,42.97
2024-02-15T04:47:05.577Z,43.29
2024-02-15T04:48:09.232Z,43.23
2024-02-15T04:49:13.320Z,42.98
2024-02-15T04:50:18.815Z,42.91
2024-02-15T04:51:22.309Z,42.96
2024-02-15T04:52:25.299Z,42.96
2024-02-15T04:53:29.946Z,42.86
2024-02-15T04:54:34.040Z,42.28
2024-02-15T04:55:38.712Z,41.86
2024-02-15T04:56:41.582Z,42.19
2024-02-15T04:57:45.255Z,41.76
2024-02-15T04:58:48.172Z,41.37
2024-02-15T04:59:51.218Z,41.81
2024-02-15T05:00:58.125Z,41.84
2024-02-15T05:02:01.796Z,41.75
2024-02-15T05:03:05.045Z,41.84
2024-02-15T05:04:07.921Z,41.85
2024-02-15T05:05:13.040Z,41.38
2024-02-15T05:06:16.466Z,41.16
2024-02-15T05:07:19.116Z,40.51
2024-02-15T05:08:22.815Z,40.23
2024-02-15T05:09:27.184Z,40.83
2024-02-15T05:10:31.546Z,41.02
2024-02-15T05:12:50.038Z,41.08
2024-02-15T05:13:52.844Z,41.06
2024-02-15T05:14:56.514Z,41.00
2024-02-15T05:16:00.482Z,40.94
2024-02-15T05:17:03.964Z,40.79
2024-02-15T05:18:08.916Z,40.65
2024-02-15T05:19:14.710Z,41.30
2024-02-15T05:20:20.465Z,41.74
2024-02-15T05:21:23.626Z,41.90
2024-02-15T05:22:30.808Z,42.03
2024-02-15T05:23:34.777Z,42.20
2024-02-15T05:24:40.336Z,42.20
2024-02-15T05:25:45.880Z,42.05
2024-02-15T05:26:49.606Z,40.59
2024-02-15T05:27:54.130Z,40.58
2024-02-15T05:28:56.808Z,40.21
2024-02-15T05:30:00.534Z,39.95
2024-02-15T05:31:18.796Z,39.75
2024-02-15T05:32:23.320Z,39.42
2024-02-15T05:33:26.850Z,39.71
2024-02-15T05:34:30.898Z,39.94
2024-02-15T05:35:36.253Z,39.13
2024-02-15T05:36:39.331Z,38.88
2024-02-15T05:37:42.136Z,39.51
2024-02-15T05:38:46.833Z,39.31
2024-02-15T05:39:53.353Z,39.26
2024-02-15T05:40:57.754Z,38.92
2024-02-15T05:42:01.521Z,38.96
2024-02-15T05:43:04.147Z,38.96
2024-02-15T05:45:30.330Z,38.24
2024-02-15T05:46:34.540Z,38.38
2024-02-15T05:47:37.193Z,38.43
2024-02-15T05:48:41.184Z,38.09
2024-02-15T05:49:44.021Z,37.87
2024-02-15T05:50:47.265Z,37.99
2024-02-15T05:51:50.956Z,37.74
2024-02-15T05:54:07.723Z,38.13
2024-02-15T05:55:12.668Z,38.33
2024-02-15T05:56:17.118Z,38.69
2024-02-15T05:57:20.660Z,38.97
2024-02-15T05:58:23.800Z,39.23
2024-02-15T05:59:26.641Z,39.43
2024-02-15T06:00:31.305Z,39.56
2024-02-15T06:01:34.401Z,39.65
2024-02-15T06:02:37.420Z,39.56
2024-02-15T06:03:43.337Z,39.84
2024-02-15T06:04:46.343Z,40.12
2024-02-15T06:05:50.865Z,40.31
2024-02-15T06:06:55.713Z,40.14
2024-02-15T06:07:59.461Z,40.06
2024-02-15T06:09:05.194Z,39.83
2024-02-15T06:10:09.547Z,39.84
2024-02-15T06:11:13.632Z,39.84
2024-02-15T06:12:17.370Z,39.82
2024-02-15T06:13:21.196Z,39.97
2024-02-15T06:14:24.403Z,40.17
2024-02-15T06:15:29.012Z,40.20
2024-02-15T06:16:32.602Z,40.18
2024-02-15T06:18:49.661Z,40.59
2024-02-15T06:19:52.717Z,40.60
2024-02-15T06:22:14.857Z,40.96
2024-02-15T06:24:32.220Z,40.89
2024-02-15T06:25:36.540Z,40.08
2024-02-15T06:26:39.850Z,40.48
2024-02-15T06:27:42.935Z,40.38
2024-02-15T06:30:36.024Z,38.97
2024-02-15T06:31:57.374Z,39.30
2024-02-15T06:33:18.711Z,39.70
2024-02-15T06:34:40.850Z,39.84
2024-02-15T06:36:02.290Z,39.82
2024-02-15T06:37:23.213Z,39.81
2024-02-15T06:38:44.388Z,39.98
2024-02-15T06:39:49.304Z,40.10
2024-02-15T06:40:53.915Z,40.33
2024-02-15T06:41:57.162Z,40.39
2024-02-15T06:43:00.392Z,40.46
2024-02-15T06:44:03.477Z,40.55
2024-02-15T06:46:21.730Z,40.72
2024-02-15T06:47:24.966Z,40.68
2024-02-15T06:48:28.739Z,40.83
2024-02-15T06:49:32.024Z,40.67
2024-02-15T06:50:37.272Z,40.85
2024-02-15T06:51:41.134Z,41.03
2024-02-15T06:52:44.276Z,41.18
2024-02-15T06:53:48.973Z,41.19
2024-02-15T06:54:53.086Z,41.19
2024-02-15T06:55:57.255Z,41.31
2024-02-15T06:57:00.020Z,41.28
2024-02-15T06:58:03.023Z,41.32
2024-02-15T06:59:08.158Z,41.43
2024-02-15T07:00:14.425Z,41.42
2024-02-15T07:01:18.000Z,41.36
2024-02-15T07:02:23.069Z,40.85
2024-02-15T07:03:25.844Z,40.70
2024-02-15T07:04:29.110Z,40.78
2024-02-15T07:05:32.310Z,40.73
2024-02-15T07:06:37.912Z,40.72
2024-02-15T07:07:42.557Z,40.50
2024-02-15T07:08:46.988Z,40.59
2024-02-15T07:09:50.548Z,40.85
2024-02-15T07:10:55.261Z,40.88
2024-02-15T07:11:58.724Z,41.02
2024-02-15T07:13:02.671Z,40.89
2024-02-15T07:14:07.327Z,40.93
2024-02-15T07:15:11.009Z,41.12
2024-02-15T07:16:15.874Z,41.16
2024-02-15T07:17:19.082Z,41.46
2024-02-15T07:18:27.695Z,41.50
2024-02-15T07:19:28.276Z,41.64
2024-02-15T07:20:31.571Z,41.56
2024-02-15T07:21:34.043Z,41.57
2024-02-15T07:22:38.049Z,41.81
2024-02-15T07:23:41.991Z,41.53
2024-02-15T07:24:44.669Z,41.58
2024-02-15T07:25:49.190Z,41.38
2024-02-15T07:26:54.006Z,41.22
2024-02-15T07:27:57.412Z,41.58
2024-02-15T07:29:02.180Z,41.39
2024-02-15T07:30:06.114Z,41.56
2024-02-15T07:31:10.377Z,41.76
2024-02-15T07:32:14.294Z,41.89
2024-02-15T07:33:18.554Z,42.08
2024-02-15T07:34:22.054Z,42.00
2024-02-15T07:35:25.725Z,41.75
2024-02-15T07:36:28.742Z,41.89
2024-02-15T07:37:33.225Z,42.09
2024-02-15T07:38:37.772Z,41.94
2024-02-15T07:39:43.708Z,41.84
2024-02-15T07:40:47.629Z,41.55
2024-02-15T07:41:51.042Z,41.36
2024-02-15T07:42:56.943Z,41.46
2024-02-15T07:44:02.747Z,41.85
2024-02-15T07:45:07.547Z,41.90
2024-02-15T07:46:13.661Z,41.72
2024-02-15T07:47:18.454Z,41.20
2024-02-15T07:48:21.506Z,41.54
2024-02-15T07:49:25.464Z,41.81
2024-02-15T07:50:29.735Z,41.91
2024-02-15T07:51:32.716Z,41.70
2024-02-15T07:52:35.956Z,41.61
2024-02-15T07:53:39.318Z,41.44
2024-02-15T07:54:43.837Z,41.26
2024-02-15T07:55:47.630Z,41.32
2024-02-15T07:56:50.989Z,41.45
2024-02-15T07:57:53.858Z,41.63
2024-02-15T07:58:57.485Z,41.78
2024-02-15T08:00:00.857Z,41.88
2024-02-15T08:01:06.089Z,42.02
2024-02-15T08:02:11.093Z,42.02
2024-02-15T08:03:15.165Z,41.96
2024-02-15T08:04:20.185Z,41.89
2024-02-15T08:05:23.558Z,42.00
2024-02-15T08:06:28.388Z,41.83
2024-02-15T08:07:33.102Z,41.96
2024-02-15T08:09:52.139Z,41.87
2024-02-15T08:10:55.940Z,41.78
2024-02-15T08:12:02.198Z,41.29
2024-02-15T08:13:04.980Z,40.90
2024-02-15T08:14:13.265Z,41.26
2024-02-15T08:15:14.779Z,41.63
2024-02-15T08:16:18.879Z,41.86
2024-02-15T08:17:21.896Z,41.93
2024-02-15T08:18:27.257Z,42.07
2024-02-15T08:19:30.836Z,42.11
2024-02-15T08:20:35.020Z,41.44
2024-02-15T08:21:38.082Z,41.99
2024-02-15T08:22:43.878Z,42.17
2024-02-15T08:23:47.144Z,42.13
2024-02-15T08:24:56.194Z,41.76
2024-02-15T08:25:59.354Z,41.82
2024-02-15T08:27:04.464Z,41.79
2024-02-15T08:28:08.810Z,41.97
2024-02-15T08:29:13.360Z,42.62
2024-02-15T08:30:16.815Z,42.62
2024-02-15T08:32:23.272Z,42.10
2024-02-15T08:34:30.619Z,42.16
2024-02-15T08:35:34.435Z,42.17
2024-02-15T08:36:39.705Z,41.65
2024-02-15T08:37:45.059Z,41.89
2024-02-15T08:38:48.312Z,42.12
2024-02-15T08:39:53.017Z,42.27
2024-02-15T08:40:57.103Z,42.30
2024-02-15T08:41:59.967Z,42.38
2024-02-15T08:43:03.244Z,42.30
2024-02-15T08:44:08.114Z,42.27
2024-02-15T08:45:11.843Z,42.34
2024-02-15T08:46:15.451Z,42.30
2024-02-15T08:47:18.970Z,42.27
2024-02-15T08:48:23.414Z,42.40
2024-02-15T08:49:28.454Z,41.93
2024-02-15T08:50:31.786Z,42.21
2024-02-15T08:51:34.924Z,42.22
2024-02-15T08:52:41.002Z,42.24
2024-02-15T08:53:44.691Z,42.18
2024-02-15T08:54:47.538Z,42.19
2024-02-15T08:55:50.107Z,42.06
2024-02-15T08:56:53.006Z,42.23
2024-02-15T08:57:55.600Z,42.17
2024-02-15T08:59:02.924Z,42.16
2024-02-15T09:00:10.361Z,41.98
2024-02-15T09:01:13.884Z,42.10
2024-02-15T09:02:16.549Z,42.07
2024-02-15T09:03:20.617Z,42.10
2024-02-15T09:04:25.156Z,42.19
2024-02-15T09:05:28.411Z,42.16
2024-02-15T09:06:32.443Z,42.28
2024-02-15T09:07:37.671Z,42.33
2024-02-15T09:08:40.846Z,42.35
2024-02-15T09:09:43.667Z,42.34
2024-02-15T09:10:48.551Z,42.52
2024-02-15T09:11:51.708Z,42.42
2024-02-15T09:12:55.939Z,42.28
2024-02-15T09:13:59.898Z,42.19
2024-02-15T09:15:02.897Z,42.17
2024-02-15T09:16:06.341Z,42.22
2024-02-15T09:17:09.102Z,41.65
2024-02-15T09:18:11.964Z,41.92
2024-02-15T09:19:15.402Z,42.07
2024-02-15T09:20:21.100Z,42.16
2024-02-15T09:21:26.769Z,42.08
2024-02-15T09:22:29.548Z,42.18
2024-02-15T09:23:32.540Z,42.21
2024-02-15T09:24:35.399Z,42.23
2024-02-15T09:25:39.061Z,42.27
2024-02-15T09:26:42.190Z,42.27
2024-02-15T09:27:47.437Z,42.28
2024-02-15T09:28:51.306Z,42.25
2024-02-15T09:29:54.094Z,42.30
2024-02-15T09:30:58.818Z,42.25
2024-02-15T09:32:02.862Z,42.19
2024-02-15T09:33:06.343Z,42.22
2024-02-15T09:34:09.920Z,42.21
2024-02-15T09:35:13.659Z,42.25
2024-02-15T09:36:18.269Z,42.29
2024-02-15T09:37:21.876Z,42.29
2024-02-15T09:38:26.478Z,42.31
2024-02-15T09:39:30.653Z,42.25
2024-02-15T09:40:35.297Z,42.19
2024-02-15T09:41:38.986Z,42.17
2024-02-15T09:42:41.875Z,42.15
2024-02-15T09:43:45.270Z,42.17
2024-02-15T09:44:48.783Z,42.17
2024-02-15T09:45:59.520Z,42.09
2024-02-15T09:47:07.711Z,42.01
2024-02-15T09:48:13.450Z,42.02
2024-02-15T09:49:16.684Z,42.07
2024-02-15T09:50:20.517Z,41.95
2024-02-15T09:51:23.974Z,41.95
2024-02-15T09:52:27.463Z,41.98
2024-02-15T09:53:30.320Z,41.66
2024-02-15T09:54:33.503Z,41.67
2024-02-15T09:55:36.534Z,41.84
2024-02-15T09:56:39.309Z,41.91
2024-02-15T09:57:48.844Z,41.87
2024-02-15T09:58:52.000Z,41.87
2024-02-15T09:59:55.865Z,41.70
2024-02-15T10:01:00.815Z,41.79
2024-02-15T10:03:20.779Z,41.84
2024-02-15T10:04:23.613Z,41.93
2024-02-15T10:05:28.189Z,41.92
2024-02-15T10:06:32.230Z,41.92
2024-02-15T10:07:34.949Z,41.94
2024-02-15T10:08:39.354Z,41.96
2024-02-15T10:09:43.950Z,41.96
2024-02-15T10:10:47.148Z,41.76
2024-02-15T10:11:59.172Z,41.90
2024-02-15T10:13:02.718Z,41.92
2024-02-15T10:14:09.812Z,41.85
2024-02-15T10:15:14.989Z,41.83
2024-02-15T10:16:23.581Z,41.82
2024-02-15T10:17:27.716Z,41.87
2024-02-15T10:18:31.958Z,41.85
2024-02-15T10:19:35.394Z,41.85
2024-02-15T10:20:39.867Z,41.78
2024-02-15T10:21:46.225Z,41.74
2024-02-15T10:22:49.015Z,41.68
2024-02-15T10:25:21.564Z,41.75
2024-02-15T10:26:24.945Z,41.76
2024-02-15T10:27:29.408Z,41.75
2024-02-15T10:28:32.537Z,41.70
2024-02-15T10:29:38.038Z,41.58
2024-02-15T10:30:43.854Z,41.63
2024-02-15T10:31:54.732Z,41.67
2024-02-15T10:32:59.278Z,41.73
2024-02-15T10:34:09.791Z,41.73
2024-02-15T10:35:22.407Z,41.67
2024-02-15T10:36:27.313Z,41.42
2024-02-15T10:37:30.230Z,41.59
2024-02-15T10:38:34.245Z,41.67
2024-02-15T10:40:55.149Z,41.55
2024-02-15T10:41:58.397Z,41.70
2024-02-15T10:43:03.532Z,41.71
2024-02-15T10:44:06.422Z,41.68
2024-02-15T10:45:13.059Z,41.65
2024-02-15T10:46:17.851Z,41.63
2024-02-15T10:47:20.568Z,41.58
2024-02-15T10:48:23.724Z,41.62
2024-02-15T10:49:28.775Z,41.64
2024-02-15T10:50:31.707Z,41.54
2024-02-15T10:51:34.901Z,41.54
2024-02-15T10:52:38.494Z,41.56
2024-02-15T10:53:45.885Z,41.52
2024-02-15T10:56:23.520Z,41.49
2024-02-15T10:57:26.938Z,41.48
2024-02-15T11:00:01.797Z,41.42
2024-02-15T11:01:09.146Z,41.28
2024-02-15T11:02:35.246Z,41.39
2024-02-15T11:04:57.393Z,41.42
2024-02-15T11:06:02.660Z,41.03
2024-02-15T11:07:08.176Z,41.03
2024-02-15T11:08:12.267Z,41.30
2024-02-15T11:09:15.711Z,41.38
2024-02-15T11:10:19.525Z,41.34
2024-02-15T11:11:23.183Z,41.41
2024-02-15T11:12:28.911Z,41.36
2024-02-15T11:13:31.569Z,41.46
2024-02-15T11:15:53.549Z,41.44
2024-02-15T11:16:58.133Z,41.37
2024-02-15T11:18:01.888Z,41.47
2024-02-15T11:19:05.312Z,41.54
2024-02-15T11:20:13.343Z,41.57
2024-02-15T11:21:17.885Z,41.58
2024-02-15T11:22:20.618Z,41.58
2024-02-15T11:23:35.677Z,41.64
2024-02-15T11:24:38.807Z,41.69
2024-02-15T11:25:43.606Z,41.66
2024-02-15T11:26:50.855Z,41.66
2024-02-15T11:27:54.457Z,41.72
2024-02-15T11:28:57.293Z,41.36
2024-02-15T11:31:21.914Z,41.76
2024-02-15T11:32:52.966Z,41.78
2024-02-15T11:33:55.761Z,42.00
2024-02-15T11:35:13.180Z,42.57
2024-02-15T11:36:17.641Z,42.66
2024-02-15T11:37:53.633Z,43.27
2024-02-15T11:38:56.402Z,43.47
2024-02-15T11:40:04.180Z,43.69
2024-02-15T11:41:08.073Z,43.83
2024-02-15T11:42:30.191Z,44.02
2024-02-15T11:46:20.787Z,44.47
2024-02-15T11:47:24.890Z,44.61
2024-02-15T11:48:27.804Z,44.53
2024-02-15T11:49:30.746Z,44.53
2024-02-15T11:51:52.893Z,44.72
2024-02-15T11:52:59.370Z,44.66
2024-02-15T11:54:11.673Z,44.60
2024-02-15T11:55:15.313Z,44.57
2024-02-15T11:56:19.144Z,44.48
2024-02-15T11:57:23.876Z,44.46
2024-02-15T11:58:31.637Z,44.46
2024-02-15T12:01:20.045Z,44.77
2024-02-15T12:02:41.472Z,44.75
2024-02-15T12:04:07.186Z,44.84
2024-02-15T12:05:28.070Z,44.51
2024-02-15T12:06:51.243Z,44.73
2024-02-15T12:08:13.067Z,44.44
2024-02-15T12:09:39.605Z,44.56
2024-02-15T12:11:01.826Z,44.50
2024-02-15T12:12:24.595Z,44.46
2024-02-15T12:13:46.198Z,44.35
2024-02-15T12:15:07.483Z,44.30
2024-02-15T12:16:29.944Z,44.22
2024-02-15T12:17:53.240Z,44.14
2024-02-15T12:18:57.428Z,43.92
2024-02-15T12:21:22.085Z,44.05
2024-02-15T12:22:31.861Z,44.06
2024-02-15T12:23:36.220Z,44.10
2024-02-15T12:24:39.961Z,43.92
2024-02-15T12:25:43.310Z,43.81
2024-02-15T12:26:47.352Z,43.85
2024-02-15T12:29:11.679Z,43.84
2024-02-15T12:30:20.774Z,43.98
2024-02-15T12:31:26.572Z,43.96
2024-02-15T12:32:33.944Z,44.03
2024-02-15T12:33:39.648Z,44.18
2024-02-15T12:34:46.017Z,43.16
2024-02-15T12:35:50.670Z,43.85
2024-02-15T12:37:09.458Z,43.26
2024-02-15T12:38:15.535Z,42.22
2024-02-15T12:39:29.345Z,43.86
2024-02-15T12:40:35.492Z,44.10
2024-02-15T12:41:43.477Z,44.25
2024-02-15T12:42:50.163Z,44.47
2024-02-15T12:43:54.058Z,44.51
2024-02-15T12:44:57.701Z,44.79
2024-02-15T12:46:00.521Z,44.60
2024-02-15T12:47:06.079Z,44.90
2024-02-15T12:48:09.778Z,45.13
2024-02-15T12:49:25.958Z,45.01
2024-02-15T12:50:30.174Z,44.65
2024-02-15T12:51:37.359Z,44.79
2024-02-15T12:52:39.473Z,44.88
2024-02-15T12:53:42.685Z,44.92
2024-02-15T12:54:45.786Z,45.12
2024-02-15T12:55:55.262Z,45.12
2024-02-15T12:57:12.528Z,45.18
2024-02-15T12:58:17.221Z,43.23
2024-02-15T12:59:21.747Z,44.28
2024-02-15T13:00:30.325Z,43.96
2024-02-15T13:01:36.301Z,44.28
2024-02-15T13:02:39.997Z,44.30
2024-02-15T13:03:44.310Z,44.24
2024-02-15T13:04:48.547Z,44.17
2024-02-15T13:05:51.569Z,44.11
2024-02-15T13:06:54.836Z,43.94
2024-02-15T13:07:59.050Z,43.88
2024-02-15T13:09:05.164Z,43.85
2024-02-15T13:10:10.099Z,43.71
2024-02-15T13:11:15.487Z,43.66
2024-02-15T13:12:19.452Z,43.80
2024-02-15T13:13:23.433Z,43.39
2024-02-15T13:14:30.079Z,43.62
2024-02-15T13:15:37.056Z,43.50
2024-02-15T13:16:40.806Z,43.73
2024-02-15T13:17:47.100Z,43.79
2024-02-15T13:18:49.991Z,43.90
2024-02-15T13:19:52.930Z,43.80
2024-02-15T13:20:55.865Z,43.70
2024-02-15T13:21:59.666Z,43.71
2024-02-15T13:23:13.062Z,43.87
2024-02-15T13:24:18.359Z,43.88
2024-02-15T13:25:22.989Z,44.02
2024-02-15T13:26:26.364Z,44.05
2024-02-15T13:27:29.314Z,43.99
2024-02-15T13:28:33.492Z,44.07
2024-02-15T13:29:36.779Z,44.25
2024-02-15T13:30:45.547Z,44.60
2024-02-15T13:31:51.557Z,44.39
2024-02-15T13:33:00.753Z,44.35
2024-02-15T13:34:04.445Z,44.64
2024-02-15T13:35:17.344Z,44.92
2024-02-15T13:36:20.698Z,44.88
2024-02-15T13:37:24.621Z,45.26
2024-02-15T13:38:28.677Z,45.35
2024-02-15T13:39:34.767Z,45.32
2024-02-15T13:40:37.614Z,45.22
2024-02-15T13:41:41.641Z,44.99
2024-02-15T13:42:50.111Z,45.37
2024-02-15T13:43:52.921Z,45.15
2024-02-15T13:44:57.221Z,45.42
2024-02-15T13:46:02.017Z,45.27
2024-02-15T13:47:05.849Z,45.36
2024-02-15T13:48:10.100Z,45.09
2024-02-15T13:49:19.614Z,44.64
2024-02-15T13:50:19.011Z,44.45
2024-02-15T13:51:21.790Z,44.12
2024-02-15T13:52:25.669Z,44.06
2024-02-15T13:53:29.030Z,43.92
2024-02-15T13:54:34.365Z,43.77
2024-02-15T13:55:39.583Z,42.81
2024-02-15T13:56:43.393Z,43.03
2024-02-15T13:57:49.862Z,42.50
2024-02-15T13:58:53.404Z,42.62
2024-02-15T13:59:56.953Z,42.77
2024-02-15T14:01:02.692Z,42.87
2024-02-15T14:02:05.932Z,42.94
2024-02-15T14:03:11.738Z,42.85
2024-02-15T14:04:15.636Z,42.83
2024-02-15T14:05:24.415Z,42.87
2024-02-15T14:06:27.639Z,42.87
2024-02-15T14:07:31.619Z,42.84
2024-02-15T14:08:35.044Z,42.66
2024-02-15T14:09:37.880Z,42.82
2024-02-15T14:10:42.493Z,42.93
2024-02-15T14:11:46.407Z,42.77
2024-02-15T14:12:50.274Z,42.77
2024-02-15T14:13:56.908Z,42.67
2024-02-15T14:15:01.363Z,42.48
2024-02-15T14:17:18.674Z,42.42
2024-02-15T14:18:23.197Z,42.55
2024-02-15T14:19:27.766Z,42.42
2024-02-15T14:20:30.894Z,42.11
2024-02-15T14:21:35.308Z,42.11
2024-02-15T14:22:38.637Z,41.96
2024-02-15T14:23:42.182Z,41.50
2024-02-15T14:24:45.461Z,41.28
2024-02-15T14:25:50.732Z,41.19
2024-02-15T14:26:54.085Z,41.04
2024-02-15T14:27:58.255Z,40.79
2024-02-15T14:29:03.198Z,40.59
2024-02-15T14:30:26.157Z,40.50
2024-02-15T14:31:47.407Z,40.34
2024-02-15T14:33:06.374Z,40.09
2024-02-15T14:34:10.835Z,39.94
2024-02-15T14:35:15.205Z,39.87
2024-02-15T14:36:19.112Z,39.81
2024-02-15T14:37:22.241Z,39.71
2024-02-15T14:38:24.900Z,39.97
2024-02-15T14:39:27.582Z,40.14
2024-02-15T14:40:44.830Z,40.18